sensor_id;sensor_type;location;lat;lon;timestamp;pressure;altitude;pressure_sealevel;temperature;humidity
50672;BME280;46021;55.882;37.654;2023-10-08T00:01:03;96177.50;;;3.64;83.05
50672;BME280;46021;55.882;37.654;2023-10-08T00:03:31;96163.34;;;3.71;82.30
50672;BME280;46021;55.882;37.654;2023-10-08T00:05:58;96163.91;;;3.62;81.96
50672;BME280;46021;55.882;37.654;2023-10-08T00:08:32;96177.34;;;3.67;82.16
50672;BME280;46021;55.882;37.654;2023-10-08T00:10:58;96176.94;;;3.73;81.11
50672;BME280;46021;55.882;37.654;2023-10-08T00:13:31;96162.06;;;3.64;81.26
50672;BME280;46021;55.882;37.654;2023-10-08T00:16:02;96172.81;;;3.70;80.12
50672;BME280;46021;55.882;37.654;2023-10-08T00:18:34;96177.59;;;3.77;80.82
50672;BME280;46021;55.882;37.654;2023-10-08T00:21:01;96180.69;;;3.82;80.04
50672;BME280;46021;55.882;37.654;2023-10-08T00:23:41;96184.22;;;3.81;80.05
50672;BME280;46021;55.882;37.654;2023-10-08T00:26:14;96167.72;;;3.83;79.64
50672;BME280;46021;55.882;37.654;2023-10-08T00:28:45;96175.19;;;3.88;80.02
50672;BME280;46021;55.882;37.654;2023-10-08T00:31:15;96171.88;;;3.86;79.81
50672;BME280;46021;55.882;37.654;2023-10-08T00:33:42;96173.44;;;3.88;78.98
50672;BME280;46021;55.882;37.654;2023-10-08T00:36:09;96165.88;;;3.85;79.42
50672;BME280;46021;55.882;37.654;2023-10-08T00:38:44;96161.28;;;3.90;77.42
50672;BME280;46021;55.882;37.654;2023-10-08T00:41:12;96166.78;;;3.99;79.15
50672;BME280;46021;55.882;37.654;2023-10-08T00:43:39;96175.84;;;3.92;77.93
50672;BME280;46021;55.882;37.654;2023-10-08T00:46:07;96182.38;;;3.97;77.61
50672;BME280;46021;55.882;37.654;2023-10-08T00:48:47;96151.72;;;3.93;77.94
50672;BME280;46021;55.882;37.654;2023-10-08T00:51:17;96174.50;;;3.99;76.13
50672;BME280;46021;55.882;37.654;2023-10-08T00:53:54;96178.75;;;4.00;77.61
50672;BME280;46021;55.882;37.654;2023-10-08T00:56:24;96179.50;;;4.02;75.45
50672;BME280;46021;55.882;37.654;2023-10-08T00:58:51;96182.44;;;3.96;75.49
50672;BME280;46021;55.882;37.654;2023-10-08T01:01:19;96177.31;;;3.96;76.30
50672;BME280;46021;55.882;37.654;2023-10-08T01:03:48;96171.59;;;3.90;76.08
50672;BME280;46021;55.882;37.654;2023-10-08T01:06:15;96172.53;;;3.89;76.35
50672;BME280;46021;55.882;37.654;2023-10-08T01:08:44;96172.72;;;3.86;76.08
50672;BME280;46021;55.882;37.654;2023-10-08T01:11:17;96175.09;;;3.89;75.89
50672;BME280;46021;55.882;37.654;2023-10-08T01:13:45;96182.66;;;3.78;74.66
50672;BME280;46021;55.882;37.654;2023-10-08T01:16:12;96172.19;;;3.67;75.26
50672;BME280;46021;55.882;37.654;2023-10-08T01:18:39;96175.50;;;3.69;76.13
50672;BME280;46021;55.882;37.654;2023-10-08T01:21:13;96170.97;;;3.58;76.79
50672;BME280;46021;55.882;37.654;2023-10-08T01:23:56;96180.63;;;3.40;78.71
50672;BME280;46021;55.882;37.654;2023-10-08T01:26:25;96179.69;;;3.27;78.67
50672;BME280;46021;55.882;37.654;2023-10-08T01:28:54;96172.34;;;3.21;79.69
50672;BME280;46021;55.882;37.654;2023-10-08T01:31:22;96181.31;;;3.13;79.71
50672;BME280;46021;55.882;37.654;2023-10-08T01:33:49;96177.13;;;3.12;79.43
50672;BME280;46021;55.882;37.654;2023-10-08T01:36:21;96167.81;;;3.10;80.37
50672;BME280;46021;55.882;37.654;2023-10-08T01:38:48;96166.34;;;3.06;78.35
50672;BME280;46021;55.882;37.654;2023-10-08T01:41:17;96164.41;;;3.09;79.00
50672;BME280;46021;55.882;37.654;2023-10-08T01:43:54;96167.63;;;3.13;78.30
50672;BME280;46021;55.882;37.654;2023-10-08T01:46:21;96161.69;;;3.12;78.37
50672;BME280;46021;55.882;37.654;2023-10-08T01:48:48;96168.94;;;3.20;77.45
50672;BME280;46021;55.882;37.654;2023-10-08T01:51:18;96163.63;;;3.23;78.06
50672;BME280;46021;55.882;37.654;2023-10-08T01:53:50;96167.03;;;3.24;75.60
50672;BME280;46021;55.882;37.654;2023-10-08T01:56:20;96179.53;;;3.30;76.77
50672;BME280;46021;55.882;37.654;2023-10-08T01:58:47;96172.34;;;3.35;75.85
50672;BME280;46021;55.882;37.654;2023-10-08T02:01:14;96190.19;;;3.38;75.70
50672;BME280;46021;55.882;37.654;2023-10-08T02:03:45;96181.63;;;3.38;75.81
50672;BME280;46021;55.882;37.654;2023-10-08T02:06:12;96176.03;;;3.45;75.13
50672;BME280;46021;55.882;37.654;2023-10-08T02:08:39;96189.28;;;3.39;75.24
50672;BME280;46021;55.882;37.654;2023-10-08T02:11:06;96191.94;;;3.38;75.10
50672;BME280;46021;55.882;37.654;2023-10-08T02:13:35;96182.66;;;3.35;75.81
50672;BME280;46021;55.882;37.654;2023-10-08T02:16:02;96176.75;;;3.19;76.43
50672;BME280;46021;55.882;37.654;2023-10-08T02:18:28;96169.66;;;3.08;76.93
50672;BME280;46021;55.882;37.654;2023-10-08T02:20:56;96184.19;;;3.09;78.25
50672;BME280;46021;55.882;37.654;2023-10-08T02:23:25;96186.47;;;3.13;78.10
50672;BME280;46021;55.882;37.654;2023-10-08T02:25:53;96185.66;;;2.99;78.65
50672;BME280;46021;55.882;37.654;2023-10-08T02:28:20;96189.03;;;2.99;78.71
50672;BME280;46021;55.882;37.654;2023-10-08T02:30:50;96182.66;;;2.90;78.68
50672;BME280;46021;55.882;37.654;2023-10-08T02:33:17;96171.38;;;2.93;79.55
50672;BME280;46021;55.882;37.654;2023-10-08T02:35:45;96177.28;;;2.95;79.15
50672;BME280;46021;55.882;37.654;2023-10-08T02:38:13;96160.16;;;2.94;79.75
50672;BME280;46021;55.882;37.654;2023-10-08T02:40:42;96169.34;;;2.98;78.94
50672;BME280;46021;55.882;37.654;2023-10-08T02:43:11;96192.78;;;2.93;77.47
50672;BME280;46021;55.882;37.654;2023-10-08T02:45:39;96168.44;;;2.99;76.47
50672;BME280;46021;55.882;37.654;2023-10-08T02:48:08;96172.50;;;3.03;76.89
50672;BME280;46021;55.882;37.654;2023-10-08T02:50:37;96168.28;;;3.17;77.52
50672;BME280;46021;55.882;37.654;2023-10-08T02:53:04;96182.44;;;3.09;76.93
50672;BME280;46021;55.882;37.654;2023-10-08T02:55:36;96171.22;;;3.10;76.22
50672;BME280;46021;55.882;37.654;2023-10-08T02:58:09;96160.94;;;3.10;75.09
50672;BME280;46021;55.882;37.654;2023-10-08T03:00:40;96185.81;;;3.10;76.14
50672;BME280;46021;55.882;37.654;2023-10-08T03:03:08;96163.50;;;3.10;74.46
50672;BME280;46021;55.882;37.654;2023-10-08T03:05:41;96170.28;;;3.11;75.05
50672;BME280;46021;55.882;37.654;2023-10-08T03:08:09;96154.69;;;3.15;75.15
50672;BME280;46021;55.882;37.654;2023-10-08T03:10:37;96166.63;;;3.16;75.17
50672;BME280;46021;55.882;37.654;2023-10-08T03:13:04;96158.00;;;3.17;75.43
50672;BME280;46021;55.882;37.654;2023-10-08T03:15:31;96158.00;;;3.17;74.63
50672;BME280;46021;55.882;37.654;2023-10-08T03:18:13;96161.47;;;3.16;74.59
50672;BME280;46021;55.882;37.654;2023-10-08T03:20:41;96170.94;;;3.15;75.14
50672;BME280;46021;55.882;37.654;2023-10-08T03:23:11;96165.16;;;3.11;74.45
50672;BME280;46021;55.882;37.654;2023-10-08T03:25:51;96181.13;;;3.02;74.96
50672;BME280;46021;55.882;37.654;2023-10-08T03:28:22;96169.44;;;2.97;75.46
50672;BME280;46021;55.882;37.654;2023-10-08T03:30:51;96163.97;;;3.03;74.92
50672;BME280;46021;55.882;37.654;2023-10-08T03:33:29;96158.63;;;3.06;74.88
50672;BME280;46021;55.882;37.654;2023-10-08T03:36:00;96160.09;;;2.96;75.39
50672;BME280;46021;55.882;37.654;2023-10-08T03:38:34;96199.28;;;2.85;76.73
50672;BME280;46021;55.882;37.654;2023-10-08T03:41:09;96165.25;;;2.80;76.07
50672;BME280;46021;55.882;37.654;2023-10-08T03:43:42;96164.50;;;2.93;76.05
50672;BME280;46021;55.882;37.654;2023-10-08T03:46:18;96162.00;;;2.92;76.70
50672;BME280;46021;55.882;37.654;2023-10-08T03:48:48;96173.19;;;2.77;76.50
50672;BME280;46021;55.882;37.654;2023-10-08T03:51:16;96173.34;;;2.73;76.84
50672;BME280;46021;55.882;37.654;2023-10-08T03:53:46;96166.19;;;2.79;76.81
50672;BME280;46021;55.882;37.654;2023-10-08T03:56:24;96176.00;;;2.72;77.74
50672;BME280;46021;55.882;37.654;2023-10-08T03:58:51;96182.97;;;2.70;77.86
50672;BME280;46021;55.882;37.654;2023-10-08T04:01:20;96169.94;;;2.73;77.68
50672;BME280;46021;55.882;37.654;2023-10-08T04:03:51;96186.19;;;2.73;77.51
50672;BME280;46021;55.882;37.654;2023-10-08T04:06:24;96179.06;;;2.79;77.24
50672;BME280;46021;55.882;37.654;2023-10-08T04:08:56;96176.09;;;2.70;76.79
50672;BME280;46021;55.882;37.654;2023-10-08T04:11:37;96175.16;;;2.71;76.91
50672;BME280;46021;55.882;37.654;2023-10-08T04:14:15;96154.97;;;2.80;76.89
50672;BME280;46021;55.882;37.654;2023-10-08T04:16:42;96159.88;;;2.84;76.47
50672;BME280;46021;55.882;37.654;2023-10-08T04:19:10;96179.88;;;2.79;76.13
50672;BME280;46021;55.882;37.654;2023-10-08T04:21:38;96173.41;;;2.72;76.55
50672;BME280;46021;55.882;37.654;2023-10-08T04:24:06;96178.91;;;2.66;77.03
50672;BME280;46021;55.882;37.654;2023-10-08T04:26:34;96173.63;;;2.53;77.50
50672;BME280;46021;55.882;37.654;2023-10-08T04:29:01;96185.00;;;2.49;78.11
50672;BME280;46021;55.882;37.654;2023-10-08T04:31:28;96185.34;;;2.43;78.72
50672;BME280;46021;55.882;37.654;2023-10-08T04:34:02;96189.25;;;2.34;79.31
50672;BME280;46021;55.882;37.654;2023-10-08T04:36:36;96187.28;;;2.23;80.20
50672;BME280;46021;55.882;37.654;2023-10-08T04:39:05;96190.69;;;2.24;80.16
50672;BME280;46021;55.882;37.654;2023-10-08T04:41:39;96187.84;;;2.28;79.74
50672;BME280;46021;55.882;37.654;2023-10-08T04:44:08;96187.91;;;2.27;80.30
50672;BME280;46021;55.882;37.654;2023-10-08T04:46:39;96190.41;;;2.28;80.26
50672;BME280;46021;55.882;37.654;2023-10-08T04:49:13;96185.13;;;2.31;80.30
50672;BME280;46021;55.882;37.654;2023-10-08T04:51:55;96188.28;;;2.37;80.43
50672;BME280;46021;55.882;37.654;2023-10-08T04:54:25;96176.31;;;2.36;80.50
50672;BME280;46021;55.882;37.654;2023-10-08T04:56:55;96192.41;;;2.39;80.27
50672;BME280;46021;55.882;37.654;2023-10-08T04:59:23;96181.31;;;2.39;80.16
50672;BME280;46021;55.882;37.654;2023-10-08T05:01:58;96190.41;;;2.44;79.72
50672;BME280;46021;55.882;37.654;2023-10-08T05:04:38;96185.94;;;2.48;79.95
50672;BME280;46021;55.882;37.654;2023-10-08T05:07:23;96194.53;;;2.47;79.71
50672;BME280;46021;55.882;37.654;2023-10-08T05:10:04;96193.28;;;2.54;78.91
50672;BME280;46021;55.882;37.654;2023-10-08T05:12:56;96195.34;;;2.63;78.55
50672;BME280;46021;55.882;37.654;2023-10-08T05:15:40;96201.97;;;2.67;78.62
50672;BME280;46021;55.882;37.654;2023-10-08T05:18:15;96195.34;;;2.63;78.51
50672;BME280;46021;55.882;37.654;2023-10-08T05:20:49;96199.69;;;2.63;78.95
50672;BME280;46021;55.882;37.654;2023-10-08T05:23:34;96204.31;;;2.56;78.56
50672;BME280;46021;55.882;37.654;2023-10-08T05:26:35;96184.41;;;2.60;78.35
50672;BME280;46021;55.882;37.654;2023-10-08T05:29:07;96202.91;;;2.50;77.79
50672;BME280;46021;55.882;37.654;2023-10-08T05:31:48;96212.94;;;2.55;78.23
50672;BME280;46021;55.882;37.654;2023-10-08T05:34:35;96204.25;;;2.58;77.45
50672;BME280;46021;55.882;37.654;2023-10-08T05:37:08;96202.66;;;2.55;77.96
50672;BME280;46021;55.882;37.654;2023-10-08T05:39:58;96207.13;;;2.67;77.54
50672;BME280;46021;55.882;37.654;2023-10-08T05:42:37;96208.06;;;2.50;77.05
50672;BME280;46021;55.882;37.654;2023-10-08T05:45:12;96199.84;;;2.44;77.47
50672;BME280;46021;55.882;37.654;2023-10-08T05:47:39;96197.78;;;2.50;77.31
50672;BME280;46021;55.882;37.654;2023-10-08T05:50:16;96210.78;;;2.47;77.48
50672;BME280;46021;55.882;37.654;2023-10-08T05:53:04;96211.28;;;2.54;78.16
50672;BME280;46021;55.882;37.654;2023-10-08T05:55:46;96217.53;;;2.50;77.60
50672;BME280;46021;55.882;37.654;2023-10-08T05:58:13;96211.28;;;2.54;76.97
50672;BME280;46021;55.882;37.654;2023-10-08T06:00:49;96202.19;;;2.48;76.37
50672;BME280;46021;55.882;37.654;2023-10-08T06:03:33;96207.97;;;2.52;75.99
50672;BME280;46021;55.882;37.654;2023-10-08T06:06:03;96199.19;;;2.56;75.21
50672;BME280;46021;55.882;37.654;2023-10-08T06:08:47;96214.00;;;2.67;75.69
50672;BME280;46021;55.882;37.654;2023-10-08T06:11:34;96219.41;;;2.62;75.08
50672;BME280;46021;55.882;37.654;2023-10-08T06:14:10;96227.78;;;2.66;74.52
50672;BME280;46021;55.882;37.654;2023-10-08T06:16:39;96224.19;;;2.68;74.93
50672;BME280;46021;55.882;37.654;2023-10-08T06:19:12;96208.81;;;2.52;73.59
50672;BME280;46021;55.882;37.654;2023-10-08T06:21:38;96217.78;;;2.76;74.47
50672;BME280;46021;55.882;37.654;2023-10-08T06:24:06;96219.25;;;2.65;73.22
50672;BME280;46021;55.882;37.654;2023-10-08T06:26:38;96212.94;;;2.71;72.99
50672;BME280;46021;55.882;37.654;2023-10-08T06:29:08;96217.78;;;2.76;72.97
50672;BME280;46021;55.882;37.654;2023-10-08T06:31:44;96221.22;;;2.76;72.87
50672;BME280;46021;55.882;37.654;2023-10-08T06:34:16;96230.28;;;2.67;74.04
50672;BME280;46021;55.882;37.654;2023-10-08T06:36:42;96226.94;;;2.65;72.90
50672;BME280;46021;55.882;37.654;2023-10-08T06:39:09;96215.75;;;2.66;72.29
50672;BME280;46021;55.882;37.654;2023-10-08T06:41:40;96225.88;;;2.69;73.12
50672;BME280;46021;55.882;37.654;2023-10-08T06:44:07;96230.50;;;2.79;72.30
50672;BME280;46021;55.882;37.654;2023-10-08T06:46:39;96216.91;;;2.77;71.78
50672;BME280;46021;55.882;37.654;2023-10-08T06:49:07;96227.44;;;2.72;71.69
50672;BME280;46021;55.882;37.654;2023-10-08T06:51:36;96217.72;;;2.77;71.96
50672;BME280;46021;55.882;37.654;2023-10-08T06:54:03;96216.72;;;2.80;72.53
50672;BME280;46021;55.882;37.654;2023-10-08T06:56:35;96225.81;;;2.85;72.75
50672;BME280;46021;55.882;37.654;2023-10-08T06:59:03;96236.22;;;2.84;71.84
50672;BME280;46021;55.882;37.654;2023-10-08T07:01:30;96241.69;;;2.78;72.20
50672;BME280;46021;55.882;37.654;2023-10-08T07:04:05;96219.94;;;2.83;72.70
50672;BME280;46021;55.882;37.654;2023-10-08T07:06:37;96257.69;;;2.83;72.72
50672;BME280;46021;55.882;37.654;2023-10-08T07:09:05;96233.44;;;2.87;72.11
50672;BME280;46021;55.882;37.654;2023-10-08T07:11:32;96219.69;;;2.88;72.94
50672;BME280;46021;55.882;37.654;2023-10-08T07:14:00;96244.47;;;2.89;71.98
50672;BME280;46021;55.882;37.654;2023-10-08T07:16:28;96241.91;;;2.89;71.96
50672;BME280;46021;55.882;37.654;2023-10-08T07:18:55;96239.56;;;3.00;71.56
50672;BME280;46021;55.882;37.654;2023-10-08T07:21:27;96245.38;;;3.04;71.66
50672;BME280;46021;55.882;37.654;2023-10-08T07:23:55;96248.00;;;3.02;71.53
50672;BME280;46021;55.882;37.654;2023-10-08T07:26:25;96239.75;;;2.97;71.84
50672;BME280;46021;55.882;37.654;2023-10-08T07:29:01;96236.59;;;2.92;71.08
50672;BME280;46021;55.882;37.654;2023-10-08T07:31:32;96241.22;;;3.01;71.33
50672;BME280;46021;55.882;37.654;2023-10-08T07:33:59;96234.13;;;2.90;71.72
50672;BME280;46021;55.882;37.654;2023-10-08T07:36:41;96276.28;;;2.88;71.25
50672;BME280;46021;55.882;37.654;2023-10-08T07:39:08;96256.81;;;2.98;70.90
50672;BME280;46021;55.882;37.654;2023-10-08T07:41:48;96253.00;;;3.05;71.08
50672;BME280;46021;55.882;37.654;2023-10-08T07:44:15;96245.22;;;2.91;71.02
50672;BME280;46021;55.882;37.654;2023-10-08T07:46:43;96259.38;;;2.84;71.06
50672;BME280;46021;55.882;37.654;2023-10-08T07:49:10;96271.66;;;2.79;71.52
50672;BME280;46021;55.882;37.654;2023-10-08T07:51:39;96257.88;;;2.64;72.41
50672;BME280;46021;55.882;37.654;2023-10-08T07:54:06;96276.31;;;2.56;72.32
50672;BME280;46021;55.882;37.654;2023-10-08T07:56:35;96263.31;;;2.59;72.30
50672;BME280;46021;55.882;37.654;2023-10-08T07:59:03;96262.56;;;2.57;72.27
50672;BME280;46021;55.882;37.654;2023-10-08T08:01:34;96284.09;;;2.70;72.63
50672;BME280;46021;55.882;37.654;2023-10-08T08:04:02;96273.47;;;2.77;71.94
50672;BME280;46021;55.882;37.654;2023-10-08T08:06:28;96279.84;;;2.85;72.10
50672;BME280;46021;55.882;37.654;2023-10-08T08:08:56;96295.38;;;2.84;72.84
50672;BME280;46021;55.882;37.654;2023-10-08T08:11:23;96279.59;;;2.90;72.08
50672;BME280;46021;55.882;37.654;2023-10-08T08:13:51;96289.41;;;2.67;72.04
50672;BME280;46021;55.882;37.654;2023-10-08T08:16:18;96311.31;;;2.75;71.78
50672;BME280;46021;55.882;37.654;2023-10-08T08:18:46;96277.53;;;2.81;71.12
50672;BME280;46021;55.882;37.654;2023-10-08T08:21:15;96303.50;;;2.92;71.23
50672;BME280;46021;55.882;37.654;2023-10-08T08:23:45;96301.00;;;3.06;70.99
50672;BME280;46021;55.882;37.654;2023-10-08T08:26:13;96304.41;;;3.21;70.98
50672;BME280;46021;55.882;37.654;2023-10-08T08:31:40;96293.38;;;3.19;69.40
50672;BME280;46021;55.882;37.654;2023-10-08T08:34:11;96299.16;;;3.08;68.73
50672;BME280;46021;55.882;37.654;2023-10-08T08:36:46;96299.31;;;3.05;69.39
50672;BME280;46021;55.882;37.654;2023-10-08T08:39:14;96301.50;;;2.97;68.81
50672;BME280;46021;55.882;37.654;2023-10-08T08:41:55;96307.16;;;2.88;69.35
50672;BME280;46021;55.882;37.654;2023-10-08T08:44:26;96309.13;;;2.83;68.94
50672;BME280;46021;55.882;37.654;2023-10-08T08:46:54;96314.28;;;2.99;69.22
50672;BME280;46021;55.882;37.654;2023-10-08T08:49:23;96317.25;;;2.91;69.52
50672;BME280;46021;55.882;37.654;2023-10-08T08:51:51;96312.72;;;2.80;69.82
50672;BME280;46021;55.882;37.654;2023-10-08T08:54:21;96318.19;;;2.90;69.64
50672;BME280;46021;55.882;37.654;2023-10-08T08:56:49;96316.19;;;2.95;70.16
50672;BME280;46021;55.882;37.654;2023-10-08T08:59:17;96313.84;;;3.06;69.73
50672;BME280;46021;55.882;37.654;2023-10-08T09:01:45;96310.28;;;3.09;70.17
50672;BME280;46021;55.882;37.654;2023-10-08T09:04:16;96328.00;;;3.13;69.61
50672;BME280;46021;55.882;37.654;2023-10-08T09:06:43;96334.31;;;3.24;68.81
50672;BME280;46021;55.882;37.654;2023-10-08T09:09:11;96343.59;;;3.26;68.63
50672;BME280;46021;55.882;37.654;2023-10-08T09:11:47;96314.53;;;3.24;68.79
50672;BME280;46021;55.882;37.654;2023-10-08T09:14:17;96334.47;;;3.21;67.68
50672;BME280;46021;55.882;37.654;2023-10-08T09:16:44;96332.84;;;3.20;68.12
50672;BME280;46021;55.882;37.654;2023-10-08T09:19:12;96332.50;;;3.10;68.00
50672;BME280;46021;55.882;37.654;2023-10-08T09:21:43;96316.59;;;3.03;68.64
50672;BME280;46021;55.882;37.654;2023-10-08T09:24:12;96319.25;;;3.02;68.47
50672;BME280;46021;55.882;37.654;2023-10-08T09:26:38;96345.16;;;2.99;69.02
50672;BME280;46021;55.882;37.654;2023-10-08T09:29:05;96352.09;;;2.97;68.91
50672;BME280;46021;55.882;37.654;2023-10-08T09:31:33;96343.50;;;2.82;68.80
50672;BME280;46021;55.882;37.654;2023-10-08T09:34:03;96340.34;;;2.77;69.33
50672;BME280;46021;55.882;37.654;2023-10-08T09:36:30;96347.31;;;2.75;69.79
50672;BME280;46021;55.882;37.654;2023-10-08T09:38:59;96345.47;;;2.92;69.60
50672;BME280;46021;55.882;37.654;2023-10-08T09:41:28;96350.97;;;2.70;69.14
50672;BME280;46021;55.882;37.654;2023-10-08T09:43:55;96343.66;;;2.79;69.98
50672;BME280;46021;55.882;37.654;2023-10-08T09:46:24;96350.56;;;2.78;69.14
50672;BME280;46021;55.882;37.654;2023-10-08T09:48:56;96330.06;;;2.77;69.50
50672;BME280;46021;55.882;37.654;2023-10-08T09:51:25;96346.22;;;2.79;69.46
50672;BME280;46021;55.882;37.654;2023-10-08T09:53:57;96350.78;;;2.73;70.03
50672;BME280;46021;55.882;37.654;2023-10-08T09:56:28;96350.81;;;2.89;69.93
50672;BME280;46021;55.882;37.654;2023-10-08T09:58:55;96341.63;;;3.16;68.82
50672;BME280;46021;55.882;37.654;2023-10-08T10:01:22;96354.56;;;3.30;68.60
50672;BME280;46021;55.882;37.654;2023-10-08T10:03:51;96345.44;;;3.24;67.55
50672;BME280;46021;55.882;37.654;2023-10-08T10:06:18;96354.22;;;3.36;68.03
50672;BME280;46021;55.882;37.654;2023-10-08T10:08:45;96338.88;;;3.19;67.03
50672;BME280;46021;55.882;37.654;2023-10-08T10:11:14;96341.97;;;3.09;68.40
50672;BME280;46021;55.882;37.654;2023-10-08T10:13:43;96344.31;;;2.82;68.20
50672;BME280;46021;55.882;37.654;2023-10-08T10:16:13;96348.97;;;2.76;68.62
50672;BME280;46021;55.882;37.654;2023-10-08T10:18:43;96354.59;;;2.66;69.15
50672;BME280;46021;55.882;37.654;2023-10-08T10:21:24;96367.53;;;2.49;70.04
50672;BME280;46021;55.882;37.654;2023-10-08T10:23:52;96374.97;;;2.38;70.65
50672;BME280;46021;55.882;37.654;2023-10-08T10:26:26;96364.50;;;2.25;71.31
50672;BME280;46021;55.882;37.654;2023-10-08T10:31:42;96387.19;;;2.17;72.58
50672;BME280;46021;55.882;37.654;2023-10-08T10:34:10;96381.38;;;2.13;73.09
50672;BME280;46021;55.882;37.654;2023-10-08T10:36:39;96378.59;;;2.18;72.93
50672;BME280;46021;55.882;37.654;2023-10-08T10:39:07;96388.88;;;2.18;72.84
50672;BME280;46021;55.882;37.654;2023-10-08T10:41:41;96410.34;;;1.99;73.83
50672;BME280;46021;55.882;37.654;2023-10-08T10:44:10;96400.00;;;1.83;74.31
50672;BME280;46021;55.882;37.654;2023-10-08T10:46:41;96400.47;;;1.91;75.38
50672;BME280;46021;55.882;37.654;2023-10-08T10:49:08;96413.00;;;1.98;75.17
50672;BME280;46021;55.882;37.654;2023-10-08T10:51:44;96388.66;;;2.05;75.91
50672;BME280;46021;55.882;37.654;2023-10-08T10:54:12;96403.75;;;2.11;75.62
50672;BME280;46021;55.882;37.654;2023-10-08T10:56:45;96399.25;;;1.99;76.32
50672;BME280;46021;55.882;37.654;2023-10-08T10:59:12;96383.31;;;1.92;75.81
50672;BME280;46021;55.882;37.654;2023-10-08T11:01:46;96401.34;;;1.90;75.89
50672;BME280;46021;55.882;37.654;2023-10-08T11:04:17;96399.38;;;1.95;76.06
50672;BME280;46021;55.882;37.654;2023-10-08T11:06:45;96395.06;;;1.96;76.59
50672;BME280;46021;55.882;37.654;2023-10-08T11:09:13;96402.19;;;1.91;76.38
50672;BME280;46021;55.882;37.654;2023-10-08T11:11:42;96394.66;;;1.88;77.10
50672;BME280;46021;55.882;37.654;2023-10-08T11:14:11;96404.38;;;1.99;77.71
50672;BME280;46021;55.882;37.654;2023-10-08T11:16:42;96391.06;;;1.90;77.67
50672;BME280;46021;55.882;37.654;2023-10-08T11:19:11;96411.63;;;1.90;77.28
50672;BME280;46021;55.882;37.654;2023-10-08T11:21:50;96407.72;;;2.01;78.25
50672;BME280;46021;55.882;37.654;2023-10-08T11:24:28;96405.56;;;2.09;77.37
50672;BME280;46021;55.882;37.654;2023-10-08T11:26:55;96392.22;;;1.85;77.33
50672;BME280;46021;55.882;37.654;2023-10-08T11:29:32;96405.66;;;1.90;77.28
50672;BME280;46021;55.882;37.654;2023-10-08T11:31:59;96409.88;;;1.91;77.69
50672;BME280;46021;55.882;37.654;2023-10-08T11:34:32;96400.47;;;1.91;77.81
50672;BME280;46021;55.882;37.654;2023-10-08T11:37:04;96408.47;;;1.85;77.84
50672;BME280;46021;55.882;37.654;2023-10-08T11:39:38;96401.81;;;1.81;77.50
50672;BME280;46021;55.882;37.654;2023-10-08T11:42:10;96403.63;;;1.79;78.08
50672;BME280;46021;55.882;37.654;2023-10-08T11:45:03;96410.25;;;1.83;78.83
50672;BME280;46021;55.882;37.654;2023-10-08T11:47:43;96400.31;;;1.77;78.08
50672;BME280;46021;55.882;37.654;2023-10-08T11:50:12;96414.13;;;1.74;78.70
50672;BME280;46021;55.882;37.654;2023-10-08T11:52:44;96401.69;;;1.67;78.67
50672;BME280;46021;55.882;37.654;2023-10-08T11:55:11;96409.44;;;1.65;79.08
50672;BME280;46021;55.882;37.654;2023-10-08T11:57:45;96401.28;;;1.57;79.48
50672;BME280;46021;55.882;37.654;2023-10-08T12:00:14;96387.34;;;1.63;79.41
50672;BME280;46021;55.882;37.654;2023-10-08T12:02:45;96404.38;;;1.64;79.47
50672;BME280;46021;55.882;37.654;2023-10-08T12:05:13;96402.13;;;1.58;79.75
50672;BME280;46021;55.882;37.654;2023-10-08T12:07:45;96402.81;;;1.61;79.35
50672;BME280;46021;55.882;37.654;2023-10-08T12:10:12;96393.81;;;1.52;79.63
50672;BME280;46021;55.882;37.654;2023-10-08T12:12:42;96405.13;;;1.48;80.39
50672;BME280;46021;55.882;37.654;2023-10-08T12:15:09;96410.50;;;1.44;80.55
50672;BME280;46021;55.882;37.654;2023-10-08T12:17:36;96415.16;;;1.35;81.13
50672;BME280;46021;55.882;37.654;2023-10-08T12:20:05;96415.22;;;1.34;81.83
50672;BME280;46021;55.882;37.654;2023-10-08T12:22:49;96403.06;;;1.38;80.44
50672;BME280;46021;55.882;37.654;2023-10-08T12:25:16;96425.09;;;1.42;80.47
50672;BME280;46021;55.882;37.654;2023-10-08T12:27:44;96413.06;;;1.25;80.98
50672;BME280;46021;55.882;37.654;2023-10-08T12:30:11;96411.94;;;1.30;81.08
50672;BME280;46021;55.882;37.654;2023-10-08T12:32:38;96408.06;;;1.41;81.08
50672;BME280;46021;55.882;37.654;2023-10-08T12:35:07;96411.69;;;1.36;81.20
50672;BME280;46021;55.882;37.654;2023-10-08T12:37:38;96412.50;;;1.37;81.21
50672;BME280;46021;55.882;37.654;2023-10-08T12:40:07;96408.38;;;1.34;81.94
50672;BME280;46021;55.882;37.654;2023-10-08T12:42:47;96399.50;;;1.23;81.77
50672;BME280;46021;55.882;37.654;2023-10-08T12:45:15;96403.28;;;1.15;82.11
50672;BME280;46021;55.882;37.654;2023-10-08T12:47:46;96416.75;;;1.19;81.65
50672;BME280;46021;55.882;37.654;2023-10-08T12:50:13;96423.00;;;1.13;82.78
50672;BME280;46021;55.882;37.654;2023-10-08T12:52:41;96399.31;;;1.08;82.73
50672;BME280;46021;55.882;37.654;2023-10-08T12:55:14;96418.72;;;1.14;83.14
50672;BME280;46021;55.882;37.654;2023-10-08T12:57:41;96412.16;;;1.08;83.34
50672;BME280;46021;55.882;37.654;2023-10-08T13:00:11;96417.97;;;1.12;83.75
50672;BME280;46021;55.882;37.654;2023-10-08T13:02:38;96417.13;;;1.11;82.94
50672;BME280;46021;55.882;37.654;2023-10-08T13:05:07;96427.56;;;0.89;83.50
50672;BME280;46021;55.882;37.654;2023-10-08T13:07:41;96420.56;;;0.93;84.08
50672;BME280;46021;55.882;37.654;2023-10-08T13:10:10;96420.69;;;0.90;83.78
50672;BME280;46021;55.882;37.654;2023-10-08T13:12:41;96419.63;;;0.94;83.97
50672;BME280;46021;55.882;37.654;2023-10-08T13:15:08;96406.47;;;0.83;85.26
50672;BME280;46021;55.882;37.654;2023-10-08T13:17:35;96409.03;;;0.83;84.74
50672;BME280;46021;55.882;37.654;2023-10-08T13:20:02;96409.97;;;0.82;84.14
50672;BME280;46021;55.882;37.654;2023-10-08T13:22:29;96421.84;;;0.83;85.13
50672;BME280;46021;55.882;37.654;2023-10-08T13:24:59;96422.84;;;0.80;85.26